createdAt,value
2017-05-28T00:01:27.796Z,101189.86
2017-05-28T00:03:55.405Z,101186.39
2017-05-28T00:06:22.919Z,101183.70
2017-05-28T00:08:50.471Z,101192.21
2017-05-28T00:11:18.022Z,101201.74
2017-05-28T00:13:45.583Z,101202.78
2017-05-28T00:16:13.135Z,101209.41
2017-05-28T00:18:40.699Z,101196.63
2017-05-28T00:21:08.301Z,101194.73
2017-05-28T00:23:35.823Z,101204.61
2017-05-28T00:26:03.379Z,101203.12
2017-05-28T00:28:30.887Z,101204.41
2017-05-28T00:30:58.401Z,101212.31
2017-05-28T00:33:25.962Z,101222.75
2017-05-28T00:35:53.472Z,101220.06
2017-05-28T00:38:21.089Z,101219.61
2017-05-28T00:40:48.638Z,101218.70
2017-05-28T00:43:16.160Z,101220.54
2017-05-28T00:45:43.723Z,101216.53
2017-05-28T00:48:11.271Z,101218.83
2017-05-28T00:50:38.787Z,101224.94
2017-05-28T00:53:06.315Z,101219.50
2017-05-28T00:55:33.889Z,101221.57
2017-05-28T00:58:01.423Z,101227.21
2017-05-28T01:00:28.968Z,101226.47
2017-05-28T01:02:56.543Z,101233.13
2017-05-28T01:05:24.056Z,101232.45
2017-05-28T01:07:51.659Z,101223.12
2017-05-28T01:10:19.203Z,101231.04
2017-05-28T01:12:46.727Z,101225.36
2017-05-28T01:15:14.274Z,101227.27
2017-05-28T01:17:41.795Z,101229.02
2017-05-28T01:20:09.372Z,101230.19
2017-05-28T01:22:36.896Z,101231.72
2017-05-28T01:25:04.411Z,101223.90
2017-05-28T01:27:31.968Z,101224.47
2017-05-28T01:29:59.487Z,101231.31
2017-05-28T01:32:27.073Z,101229.54
2017-05-28T01:34:54.596Z,101228.42
2017-05-28T01:37:22.131Z,101225.25
2017-05-28T01:39:49.687Z,101228.94
2017-05-28T01:42:17.212Z,101223.95
2017-05-28T01:44:44.756Z,101226.13
2017-05-28T01:47:12.279Z,101234.39
2017-05-28T01:49:39.947Z,101225.31
2017-05-28T01:52:07.499Z,101218.27
2017-05-28T01:54:35.083Z,101214.17
2017-05-28T01:57:02.623Z,101204.64
2017-05-28T01:59:30.156Z,101206.41
2017-05-28T02:01:57.711Z,101208.22
2017-05-28T02:04:25.344Z,101216.37
2017-05-28T02:06:52.919Z,101218.66
2017-05-28T02:09:20.467Z,101211.45
2017-05-28T02:11:47.995Z,101212.89
2017-05-28T02:14:15.534Z,101218.23
2017-05-28T02:16:43.104Z,101214.32
2017-05-28T02:19:10.771Z,101223.17
2017-05-28T02:21:38.439Z,101217.64
2017-05-28T02:24:06.031Z,101218.52
2017-05-28T02:26:33.587Z,101209.99
2017-05-28T02:29:01.217Z,101222.86
2017-05-28T02:31:28.775Z,101225.82
2017-05-28T02:33:56.358Z,101223.67
2017-05-28T02:36:23.915Z,101213.36
2017-05-28T02:38:51.493Z,101218.31
2017-05-28T02:41:19.003Z,101214.57
2017-05-28T02:43:46.624Z,101219.38
2017-05-28T02:46:14.195Z,101226.06
2017-05-28T02:48:41.912Z,101223.59
2017-05-28T02:51:09.472Z,101232.45
2017-05-28T02:53:37.031Z,101230.05
2017-05-28T02:56:04.564Z,101224.17
2017-05-28T02:58:32.203Z,101229.34
2017-05-28T03:00:59.850Z,101226.40
2017-05-28T03:03:27.428Z,101224.13
2017-05-28T03:05:54.987Z,101232.73
2017-05-28T03:08:22.581Z,101233.77
2017-05-28T03:10:50.181Z,101231.03
2017-05-28T03:13:17.768Z,101231.38
2017-05-28T03:15:45.387Z,101236.05
2017-05-28T03:18:12.940Z,101240.09
2017-05-28T03:20:40.489Z,101239.02
2017-05-28T03:23:08.021Z,101233.44
2017-05-28T03:25:35.585Z,101251.45
2017-05-28T03:28:03.132Z,101241.41
2017-05-28T03:30:30.652Z,101259.89
2017-05-28T03:32:58.223Z,101258.05
2017-05-28T03:35:25.747Z,101254.69
2017-05-28T03:37:53.305Z,101254.91
2017-05-28T03:40:20.830Z,101257.17
2017-05-28T03:42:48.379Z,101253.94
2017-05-28T03:45:15.905Z,101257.81
2017-05-28T03:47:43.474Z,101268.27
2017-05-28T03:50:11.027Z,101267.61
2017-05-28T03:52:38.815Z,101261.61
2017-05-28T03:55:06.375Z,101262.62
2017-05-28T03:57:33.891Z,101276.38
2017-05-28T04:00:01.453Z,101286.60
2017-05-28T04:02:28.987Z,101288.56
2017-05-28T04:04:56.568Z,101293.79
2017-05-28T04:07:24.102Z,101296.98
2017-05-28T04:09:51.630Z,101298.20
2017-05-28T04:12:19.192Z,101299.09
2017-05-28T04:14:46.736Z,101299.30
2017-05-28T04:17:14.295Z,101299.66
2017-05-28T04:19:41.872Z,101300.08
2017-05-28T04:22:09.439Z,101310.42
2017-05-28T04:24:36.963Z,101317.56
2017-05-28T04:27:04.475Z,101329.81
2017-05-28T04:29:32.096Z,101326.03
2017-05-28T04:31:59.623Z,101316.41
2017-05-28T04:34:27.185Z,101314.59
2017-05-28T04:36:54.807Z,101318.27
2017-05-28T04:39:22.418Z,101317.31
2017-05-28T04:41:49.940Z,101312.08
2017-05-28T04:44:17.496Z,101302.95
2017-05-28T04:46:45.055Z,101290.31
2017-05-28T04:49:12.593Z,101286.31
2017-05-28T04:51:40.163Z,101284.11
2017-05-28T04:54:07.787Z,101286.62
2017-05-28T04:56:35.323Z,101299.52
2017-05-28T04:59:02.884Z,101293.25
2017-05-28T05:01:30.407Z,101281.33
2017-05-28T05:03:58.321Z,101282.14
2017-05-28T05:06:25.851Z,101292.98
2017-05-28T05:08:53.385Z,101298.96
2017-05-28T05:11:20.975Z,101298.00
2017-05-28T05:13:48.512Z,101300.25
2017-05-28T05:16:16.072Z,101308.59
2017-05-28T05:18:43.595Z,101314.03
2017-05-28T05:21:11.188Z,101323.30
2017-05-28T05:23:38.705Z,101328.73
2017-05-28T05:26:06.763Z,101333.01
2017-05-28T05:28:34.301Z,101330.70
2017-05-28T05:31:01.846Z,101335.36
2017-05-28T05:33:29.431Z,101345.58
2017-05-28T05:35:56.960Z,101344.27
2017-05-28T05:38:24.559Z,101340.41
2017-05-28T05:40:52.107Z,101353.83
2017-05-28T05:43:19.691Z,101347.63
2017-05-28T05:45:47.259Z,101349.86
2017-05-28T05:48:14.832Z,101352.42
2017-05-28T05:50:42.459Z,101349.75
2017-05-28T05:53:09.993Z,101355.09
2017-05-28T05:55:37.682Z,101364.19
2017-05-28T05:58:05.658Z,101361.66
2017-05-28T06:00:33.186Z,101357.83
2017-05-28T06:03:00.712Z,101357.76
2017-05-28T06:05:28.283Z,101356.72
2017-05-28T06:07:55.844Z,101361.89
2017-05-28T06:10:23.408Z,101359.69
2017-05-28T06:12:50.954Z,101352.78
2017-05-28T06:15:18.512Z,101354.71
2017-05-28T06:17:46.065Z,101356.64
2017-05-28T06:20:13.657Z,101354.24
2017-05-28T06:22:41.176Z,101348.91
2017-05-28T06:25:08.695Z,101347.16
2017-05-28T06:27:36.260Z,101342.43
2017-05-28T06:30:03.814Z,101334.97
2017-05-28T06:32:31.365Z,101338.09
2017-05-28T06:34:58.939Z,101341.44
2017-05-28T06:37:26.688Z,101337.77
2017-05-28T06:39:54.224Z,101332.77
2017-05-28T06:42:21.812Z,101329.91
2017-05-28T06:44:49.392Z,101329.31
2017-05-28T06:47:16.959Z,101332.23
2017-05-28T06:49:44.568Z,101328.44
2017-05-28T06:52:12.121Z,101335.79
2017-05-28T06:54:39.734Z,101334.23
2017-05-28T06:57:07.264Z,101334.58
2017-05-28T06:59:34.803Z,101333.36
2017-05-28T07:02:02.371Z,101329.02
2017-05-28T07:04:29.903Z,101324.20
2017-05-28T07:06:57.488Z,101328.34
2017-05-28T07:09:25.020Z,101322.73
2017-05-28T07:11:52.543Z,101313.91
2017-05-28T07:14:20.102Z,101321.81
2017-05-28T07:16:47.635Z,101312.58
2017-05-28T07:19:15.233Z,101311.16
2017-05-28T07:21:42.762Z,101309.20
2017-05-28T07:24:10.281Z,101313.21
2017-05-28T07:26:37.837Z,101317.55
2017-05-28T07:29:05.373Z,101309.98
2017-05-28T07:31:32.936Z,101308.53
2017-05-28T07:34:00.492Z,101304.16
2017-05-28T07:36:28.079Z,101305.59
2017-05-28T07:38:55.595Z,101306.92
2017-05-28T07:41:23.137Z,101307.36
2017-05-28T07:43:50.679Z,101303.77
2017-05-28T07:46:18.225Z,101304.61
2017-05-28T07:48:45.776Z,101305.56
2017-05-28T07:51:13.295Z,101313.64
2017-05-28T07:53:40.868Z,101315.44
2017-05-28T07:56:08.388Z,101317.30
2017-05-28T07:58:35.960Z,101325.81
2017-05-28T08:01:03.515Z,101340.20
2017-05-28T08:03:31.064Z,101331.86
2017-05-28T08:05:59.039Z,101327.72
2017-05-28T08:08:26.564Z,101333.59
2017-05-28T08:10:54.114Z,101334.19
2017-05-28T08:13:21.713Z,101330.34
2017-05-28T08:15:49.260Z,101337.95
2017-05-28T08:18:16.829Z,101347.95
2017-05-28T08:20:44.368Z,101356.66
2017-05-28T08:23:11.996Z,101369.59
2017-05-28T08:25:39.527Z,101390.70
2017-05-28T08:28:07.212Z,101399.72
2017-05-28T08:30:34.783Z,101388.84
2017-05-28T08:33:04.397Z,101383.17
2017-05-28T08:35:32.025Z,101395.61
2017-05-28T08:37:59.608Z,101403.82
2017-05-28T08:40:27.155Z,101412.39
2017-05-28T08:42:54.716Z,101408.56
2017-05-28T08:45:22.245Z,101408.06
2017-05-28T08:47:49.822Z,101397.88
2017-05-28T08:50:17.360Z,101399.94
2017-05-28T08:52:44.963Z,101406.56
2017-05-28T08:55:12.512Z,101411.66
2017-05-28T08:57:40.071Z,101401.74
2017-05-28T09:00:07.690Z,101388.31
2017-05-28T09:02:35.287Z,101375.89
2017-05-28T09:05:03.623Z,101372.58
2017-05-28T09:07:31.341Z,101387.23
2017-05-28T09:10:17.427Z,101399.45
2017-05-28T09:12:50.259Z,101404.03
2017-05-28T09:15:17.845Z,101404.62
2017-05-28T09:17:45.375Z,101418.94
2017-05-28T09:20:12.914Z,101409.12
2017-05-28T09:22:40.675Z,101390.79
2017-05-28T09:25:08.221Z,101399.19
2017-05-28T09:27:35.786Z,101401.38
2017-05-28T09:30:03.320Z,101397.92
2017-05-28T09:32:30.900Z,101387.31
2017-05-28T09:34:58.451Z,101379.98
2017-05-28T09:37:26.055Z,101374.08
2017-05-28T09:39:53.584Z,101359.73
2017-05-28T09:42:21.142Z,101343.45
2017-05-28T09:44:48.793Z,101332.92
2017-05-28T09:47:16.336Z,101322.27
2017-05-28T09:49:43.896Z,101352.86
2017-05-28T09:52:11.447Z,101382.64
2017-05-28T09:54:39.024Z,101388.81
2017-05-28T09:57:06.571Z,101370.55
2017-05-28T09:59:34.154Z,101366.25
2017-05-28T10:02:01.696Z,101371.72
2017-05-28T10:04:29.235Z,101377.71
2017-05-28T10:06:56.851Z,101368.11
2017-05-28T10:09:24.377Z,101370.97
2017-05-28T10:11:51.983Z,101363.24
2017-05-28T10:14:19.587Z,101355.52
2017-05-28T10:16:47.120Z,101355.32
2017-05-28T10:19:14.755Z,101363.80
2017-05-28T10:21:42.345Z,101366.02
2017-05-28T10:24:09.908Z,101357.00
2017-05-28T10:26:37.519Z,101363.27
2017-05-28T10:29:05.141Z,101364.95
2017-05-28T10:31:32.705Z,101354.69
2017-05-28T10:34:00.682Z,101356.92
2017-05-28T10:36:28.228Z,101353.31
2017-05-28T10:38:55.785Z,101342.76
2017-05-28T10:41:23.335Z,101347.59
2017-05-28T10:43:50.883Z,101342.18
2017-05-28T10:46:18.467Z,101347.72
2017-05-28T10:48:45.991Z,101344.45
2017-05-28T10:51:13.568Z,101342.80
2017-05-28T10:53:41.097Z,101339.28
2017-05-28T10:56:08.697Z,101327.45
2017-05-28T10:58:36.254Z,101324.27
2017-05-28T11:01:03.784Z,101316.50
2017-05-28T11:03:31.353Z,101308.71
2017-05-28T11:05:58.877Z,101314.39
2017-05-28T11:08:26.436Z,101305.98
2017-05-28T11:10:53.975Z,101301.25
2017-05-28T11:13:21.967Z,101305.70
2017-05-28T11:15:49.526Z,101306.86
2017-05-28T11:18:17.105Z,101303.64
2017-05-28T11:20:45.523Z,101303.47
2017-05-28T11:23:28.863Z,101297.81
2017-05-28T11:25:56.467Z,101297.95
2017-05-28T11:28:23.993Z,101295.09
2017-05-28T11:30:51.563Z,101294.98
2017-05-28T11:33:19.138Z,101291.41
2017-05-28T11:35:46.668Z,101291.27
2017-05-28T11:38:14.268Z,101299.17
2017-05-28T11:40:41.800Z,101292.45
2017-05-28T11:43:09.400Z,101298.05
2017-05-28T11:45:36.988Z,101293.20
2017-05-28T11:48:04.884Z,101291.93
2017-05-28T11:50:32.423Z,101288.90
2017-05-28T11:52:59.956Z,101283.45
2017-05-28T11:55:27.516Z,101283.30
2017-05-28T11:57:55.053Z,101284.29
2017-05-28T12:00:22.632Z,101276.77
2017-05-28T12:02:50.171Z,101271.95
2017-05-28T12:05:17.696Z,101268.53
2017-05-28T12:07:45.280Z,101273.83
2017-05-28T12:10:12.883Z,101261.76
2017-05-28T12:12:40.454Z,101262.25
2017-05-28T12:15:08.016Z,101262.72
2017-05-28T12:17:35.568Z,101252.98
2017-05-28T12:20:03.121Z,101255.65
2017-05-28T12:22:31.028Z,101251.84
2017-05-28T12:24:58.559Z,101241.86
2017-05-28T12:27:26.107Z,101246.59
2017-05-28T12:29:53.675Z,101254.69
2017-05-28T12:32:21.209Z,101252.03
2017-05-28T12:34:48.781Z,101248.62
2017-05-28T12:37:16.303Z,101252.84
2017-05-28T12:39:43.904Z,101250.87
2017-05-28T12:42:11.453Z,101243.47
2017-05-28T12:44:39.076Z,101245.80
2017-05-28T12:47:06.593Z,101244.50
2017-05-28T12:49:34.124Z,101247.58
2017-05-28T12:52:01.683Z,101237.58
2017-05-28T12:54:29.255Z,101237.56
2017-05-28T12:56:56.814Z,101236.80
2017-05-28T12:59:24.348Z,101228.63
2017-05-28T13:01:51.924Z,101228.70
2017-05-28T13:04:19.448Z,101228.33
2017-05-28T13:06:46.996Z,101221.23
2017-05-28T13:09:14.567Z,101219.58
2017-05-28T13:11:42.085Z,101212.09
2017-05-28T13:14:10.069Z,101215.59
2017-05-28T13:16:37.598Z,101216.97
2017-05-28T13:19:05.140Z,101215.27
2017-05-28T13:21:32.740Z,101214.38
2017-05-28T13:24:00.348Z,101212.03
2017-05-28T13:26:28.003Z,101214.39
2017-05-28T13:28:55.572Z,101201.86
2017-05-28T13:31:23.196Z,101203.98
2017-05-28T13:33:50.710Z,101196.61
2017-05-28T13:36:18.320Z,101191.20
2017-05-28T13:38:45.869Z,101197.00
2017-05-28T13:41:13.456Z,101206.95
2017-05-28T13:43:41.047Z,101197.69
2017-05-28T13:46:08.596Z,101200.19
2017-05-28T13:48:36.157Z,101195.63
2017-05-28T13:51:03.683Z,101195.63
2017-05-28T13:53:31.358Z,101195.98
2017-05-28T13:55:58.984Z,101186.95
2017-05-28T13:58:26.512Z,101193.65
2017-05-28T14:00:54.140Z,101193.03
2017-05-28T14:03:21.687Z,101184.66
2017-05-28T14:05:49.640Z,101180.11
2017-05-28T14:08:17.167Z,101180.72
2017-05-28T14:10:44.712Z,101178.17
2017-05-28T14:13:12.273Z,101174.25
2017-05-28T14:15:39.917Z,101179.07
2017-05-28T14:18:07.476Z,101171.90
2017-05-28T14:20:35.023Z,101182.56
2017-05-28T14:23:02.568Z,101185.80
2017-05-28T14:25:30.119Z,101185.95
2017-05-28T14:27:57.637Z,101194.96
2017-05-28T14:30:25.196Z,101191.95
2017-05-28T14:32:52.766Z,101185.84
2017-05-28T14:35:20.379Z,101183.37
2017-05-28T14:37:47.996Z,101178.05
2017-05-28T14:40:15.634Z,101180.98
2017-05-28T14:42:43.168Z,101178.83
2017-05-28T14:45:10.717Z,101177.25
2017-05-28T14:47:38.291Z,101188.20
2017-05-28T14:50:05.812Z,101182.84
2017-05-28T14:52:33.392Z,101189.98
2017-05-28T14:55:00.896Z,101189.36
2017-05-28T14:57:28.450Z,101182.81
2017-05-28T14:59:55.997Z,101180.46
2017-05-28T15:02:23.538Z,101180.86
2017-05-28T15:04:51.104Z,101184.50
2017-05-28T15:07:18.644Z,101182.45
2017-05-28T15:09:46.177Z,101174.72
2017-05-28T15:12:13.735Z,101176.80
2017-05-28T15:14:41.261Z,101171.09
2017-05-28T15:17:08.881Z,101173.77
2017-05-28T15:19:36.416Z,101170.02
2017-05-28T15:22:03.974Z,101171.81
2017-05-28T15:24:31.527Z,101171.67
2017-05-28T15:26:59.109Z,101162.13
2017-05-28T15:29:26.639Z,101166.78
2017-05-28T15:31:54.172Z,101154.13
2017-05-28T15:34:21.746Z,101153.48
2017-05-28T15:36:49.312Z,101142.23
2017-05-28T15:39:16.920Z,101131.75
2017-05-28T15:41:44.447Z,101132.63
2017-05-28T15:44:11.999Z,101125.31
2017-05-28T15:46:39.576Z,101125.90
2017-05-28T15:49:07.121Z,101115.98
2017-05-28T15:51:34.701Z,101114.36
2017-05-28T15:54:02.251Z,101113.35
2017-05-28T15:56:29.851Z,101116.77
2017-05-28T15:58:57.401Z,101113.00
2017-05-28T16:01:25.038Z,101110.44
2017-05-28T16:03:52.610Z,101116.39
2017-05-28T16:06:20.240Z,101111.23
2017-05-28T16:08:47.771Z,101108.08
2017-05-28T16:11:15.370Z,101100.31
2017-05-28T16:13:42.981Z,101101.52
2017-05-28T16:16:10.545Z,101096.36
2017-05-28T16:18:38.100Z,101092.98
2017-05-28T16:21:05.696Z,101095.91
2017-05-28T16:23:33.611Z,101099.34
2017-05-28T16:26:01.152Z,101098.73
2017-05-28T16:28:28.760Z,101107.66
2017-05-28T16:30:56.312Z,101107.84
2017-05-28T16:33:23.872Z,101109.54
2017-05-28T16:35:51.395Z,101108.00
2017-05-28T16:38:18.964Z,101100.45
2017-05-28T16:40:46.556Z,101101.24
2017-05-28T16:43:14.311Z,101111.80
2017-05-28T16:45:41.827Z,101103.38
2017-05-28T16:50:59.401Z,101105.95
2017-05-28T16:53:26.961Z,101103.82
2017-05-28T16:55:54.487Z,101102.41
2017-05-28T16:58:22.021Z,101107.97
2017-05-28T17:00:49.577Z,101105.19
2017-05-28T17:03:17.139Z,101109.73
2017-05-28T17:05:44.687Z,101107.77
2017-05-28T17:08:12.243Z,101108.18
2017-05-28T17:10:39.843Z,101116.77
2017-05-28T17:13:07.387Z,101109.77
2017-05-28T17:15:34.923Z,101111.72
2017-05-28T17:18:02.463Z,101110.47
2017-05-28T17:20:30.003Z,101108.28
2017-05-28T17:22:57.736Z,101108.17
2017-05-28T17:25:25.287Z,101106.42
2017-05-28T17:27:52.947Z,101102.58
2017-05-28T17:30:20.528Z,101098.42
2017-05-28T17:32:48.095Z,101087.11
2017-05-28T17:35:15.766Z,101091.25
2017-05-28T17:37:43.327Z,101089.64
2017-05-28T17:40:10.903Z,101094.30
2017-05-28T17:42:38.427Z,101093.02
2017-05-28T17:45:06.020Z,101086.18
2017-05-28T17:47:33.547Z,101087.52
2017-05-28T17:50:01.066Z,101087.98
2017-05-28T17:52:28.631Z,101078.63
2017-05-28T17:54:56.183Z,101083.41
2017-05-28T17:57:23.720Z,101084.19
2017-05-28T17:59:51.236Z,101085.68
2017-05-28T18:02:18.822Z,101083.89
2017-05-28T18:04:46.355Z,101078.63
2017-05-28T18:07:13.880Z,101076.12
2017-05-28T18:09:41.489Z,101071.61
2017-05-28T18:12:09.038Z,101072.22
2017-05-28T18:14:36.571Z,101069.16
2017-05-28T18:17:04.148Z,101070.66
2017-05-28T18:19:31.683Z,101076.91
2017-05-28T18:21:59.217Z,101072.25
2017-05-28T18:24:26.759Z,101073.39
2017-05-28T18:26:54.299Z,101078.39
2017-05-28T18:29:21.908Z,101078.61
2017-05-28T18:31:49.420Z,101077.80
2017-05-28T18:34:17.016Z,101076.03
2017-05-28T18:36:44.613Z,101079.38
2017-05-28T18:39:12.155Z,101077.73
2017-05-28T18:41:39.731Z,101081.02
2017-05-28T18:44:07.273Z,101078.02
2017-05-28T18:46:34.835Z,101076.14
2017-05-28T18:49:02.368Z,101084.13
2017-05-28T18:51:29.892Z,101089.38
2017-05-28T18:53:57.485Z,101086.42
2017-05-28T18:56:25.014Z,101093.48
2017-05-28T18:58:52.534Z,101092.55
2017-05-28T19:01:20.094Z,101098.63
2017-05-28T19:03:47.683Z,101095.52
2017-05-28T19:06:15.218Z,101093.80
2017-05-28T19:08:42.752Z,101098.41
2017-05-28T19:11:10.306Z,101101.48
2017-05-28T19:13:37.859Z,101105.49
2017-05-28T19:16:05.438Z,101099.24
2017-05-28T19:18:32.956Z,101100.55
2017-05-28T19:21:00.491Z,101108.78
2017-05-28T19:23:28.075Z,101105.55
2017-05-28T19:25:55.625Z,101102.64
2017-05-28T19:28:23.227Z,101103.39
2017-05-28T19:30:50.752Z,101102.97
2017-05-28T19:33:18.312Z,101113.36
2017-05-28T19:35:45.884Z,101107.14
2017-05-28T19:38:13.447Z,101100.81
2017-05-28T19:40:41.024Z,101103.86
2017-05-28T19:43:08.603Z,101108.36
2017-05-28T19:45:36.204Z,101112.20
2017-05-28T19:48:03.724Z,101118.64
2017-05-28T19:50:31.255Z,101113.39
2017-05-28T19:52:58.843Z,101114.40
2017-05-28T19:55:26.416Z,101115.08
2017-05-28T19:57:53.956Z,101122.59
2017-05-28T20:00:21.508Z,101124.25
2017-05-28T20:02:49.179Z,101122.95
2017-05-28T20:05:16.760Z,101123.12
2017-05-28T20:07:44.416Z,101123.68
2017-05-28T20:12:45.668Z,101123.20
2017-05-28T20:15:13.236Z,101129.63
2017-05-28T20:17:40.780Z,101130.88
2017-05-28T20:20:08.340Z,101131.51
2017-05-28T20:22:35.871Z,101130.86
2017-05-28T20:25:03.457Z,101129.67
2017-05-28T20:27:31.023Z,101122.98
2017-05-28T20:29:58.632Z,101122.49
2017-05-28T20:32:26.151Z,101117.05
2017-05-28T20:34:53.692Z,101120.80
2017-05-28T20:37:21.279Z,101116.30
2017-05-28T20:39:48.872Z,101117.45
2017-05-28T20:42:16.479Z,101112.46
2017-05-28T20:44:44.072Z,101111.69
2017-05-28T20:47:11.648Z,101112.80
2017-05-28T20:49:39.211Z,101110.59
2017-05-28T20:52:06.758Z,101115.94
2017-05-28T20:54:34.315Z,101115.28
2017-05-28T20:57:01.837Z,101110.52
2017-05-28T20:59:29.404Z,101106.92
2017-05-28T21:01:56.983Z,101110.36
2017-05-28T21:04:24.580Z,101111.69
2017-05-28T21:06:52.123Z,101116.75
2017-05-28T21:09:19.643Z,101112.70
2017-05-28T21:11:47.303Z,101103.94
2017-05-28T21:14:14.853Z,101109.12
2017-05-28T21:16:42.441Z,101108.41
2017-05-28T21:19:09.971Z,101099.89
2017-05-28T21:21:37.539Z,101108.67
2017-05-28T21:24:05.083Z,101110.88
2017-05-28T21:26:32.664Z,101107.83
2017-05-28T21:29:00.191Z,101108.61
2017-05-28T21:31:27.726Z,101102.74
2017-05-28T21:33:55.282Z,101105.03
2017-05-28T21:36:22.791Z,101101.51
2017-05-28T21:38:50.347Z,101098.87
2017-05-28T21:41:17.894Z,101094.84
2017-05-28T21:43:45.483Z,101092.67
2017-05-28T21:46:12.999Z,101084.13
2017-05-28T21:48:40.521Z,101084.52
2017-05-28T21:51:08.089Z,101098.47
2017-05-28T21:53:35.627Z,101098.69
2017-05-28T21:56:03.199Z,101094.00
2017-05-28T21:58:30.731Z,101094.33
2017-05-28T22:00:58.322Z,101082.69
2017-05-28T22:03:25.864Z,101080.61
2017-05-28T22:05:53.439Z,101075.08
2017-05-28T22:08:21.001Z,101077.78
2017-05-28T22:10:48.760Z,101079.78
2017-05-28T22:13:16.373Z,101088.96
2017-05-28T22:15:43.904Z,101086.47
2017-05-28T22:18:11.438Z,101075.33
2017-05-28T22:20:39.000Z,101075.42
2017-05-28T22:23:06.524Z,101075.56
2017-05-28T22:25:34.084Z,101062.32
2017-05-28T22:28:01.591Z,101056.69
2017-05-28T22:30:29.148Z,101065.05
2017-05-28T22:32:56.671Z,101066.68
2017-05-28T22:35:24.236Z,101060.99
2017-05-28T22:37:51.743Z,101058.73
2017-05-28T22:40:19.316Z,101050.41
2017-05-28T22:42:46.857Z,101046.06
2017-05-28T22:45:14.463Z,101051.69
2017-05-28T22:47:42.024Z,101044.49
2017-05-28T22:50:09.615Z,101032.59
2017-05-28T22:52:37.167Z,101028.17
2017-05-28T22:55:04.691Z,101019.59
2017-05-28T22:57:32.231Z,101018.92
2017-05-28T22:59:59.761Z,101017.11
2017-05-28T23:02:27.332Z,101009.39
2017-05-28T23:04:54.848Z,101001.23
2017-05-28T23:07:22.380Z,100997.73
2017-05-28T23:09:49.992Z,100999.41
2017-05-28T23:12:17.528Z,100999.12
2017-05-28T23:14:45.123Z,100993.48
2017-05-28T23:17:12.644Z,101000.16
2017-05-28T23:19:40.195Z,100998.28
2017-05-28T23:22:07.740Z,100991.84
2017-05-28T23:24:35.263Z,100986.16
2017-05-28T23:27:02.820Z,100983.34
2017-05-28T23:29:30.464Z,100978.80
2017-05-28T23:31:58.038Z,100980.11
2017-05-28T23:34:25.561Z,100983.41
2017-05-28T23:36:53.093Z,100983.61
2017-05-28T23:39:20.652Z,100982.53
2017-05-28T23:41:48.170Z,100974.15
2017-05-28T23:44:15.869Z,100974.23
2017-05-28T23:46:43.388Z,100975.10
2017-05-28T23:49:10.923Z,100972.77
2017-05-28T23:51:38.486Z,100973.61
2017-05-28T23:54:06.065Z,100968.83
2017-05-28T23:56:33.626Z,100962.61
2017-05-28T23:59:01.143Z,100963.66
